sensor_id;sensor_type;location;lat;lon;timestamp;pressure;altitude;pressure_sealevel;temperature;humidity
13314;BME280;6725;48.112;11.604;2023-06-22T00:01:47;95367.38;;;21.15;100.00
13314;BME280;6725;48.112;11.604;2023-06-22T00:04:13;95353.66;;;21.11;100.00
13314;BME280;6725;48.112;11.604;2023-06-22T00:06:38;95346.50;;;21.19;100.00
13314;BME280;6725;48.112;11.604;2023-06-22T00:09:03;95350.09;;;21.11;100.00
13314;BME280;6725;48.112;11.604;2023-06-22T00:11:29;95355.25;;;21.03;100.00
13314;BME280;6725;48.112;11.604;2023-06-22T00:13:54;95359.88;;;21.06;100.00
13314;BME280;6725;48.112;11.604;2023-06-22T00:16:19;95359.69;;;21.10;100.00
13314;BME280;6725;48.112;11.604;2023-06-22T00:18:45;95361.41;;;21.07;100.00
13314;BME280;6725;48.112;11.604;2023-06-22T00:21:12;95366.97;;;21.07;100.00
13314;BME280;6725;48.112;11.604;2023-06-22T00:23:38;95365.00;;;20.99;100.00
13314;BME280;6725;48.112;11.604;2023-06-22T00:26:03;95360.97;;;21.00;100.00
13314;BME280;6725;48.112;11.604;2023-06-22T00:28:28;95356.19;;;21.00;100.00
13314;BME280;6725;48.112;11.604;2023-06-22T00:30:54;95359.75;;;20.92;100.00
13314;BME280;6725;48.112;11.604;2023-06-22T00:33:19;95361.31;;;20.93;100.00
13314;BME280;6725;48.112;11.604;2023-06-22T00:35:45;95353.00;;;20.84;100.00
13314;BME280;6725;48.112;11.604;2023-06-22T00:38:10;95346.69;;;20.83;100.00
13314;BME280;6725;48.112;11.604;2023-06-22T00:40:36;95358.13;;;20.76;100.00
13314;BME280;6725;48.112;11.604;2023-06-22T00:43:02;95351.97;;;20.72;100.00
13314;BME280;6725;48.112;11.604;2023-06-22T00:45:27;95344.59;;;20.69;100.00
13314;BME280;6725;48.112;11.604;2023-06-22T00:47:53;95342.00;;;20.66;100.00
13314;BME280;6725;48.112;11.604;2023-06-22T00:50:21;95346.63;;;20.60;100.00
13314;BME280;6725;48.112;11.604;2023-06-22T00:52:55;95343.56;;;20.58;100.00
13314;BME280;6725;48.112;11.604;2023-06-22T00:55:24;95348.69;;;20.50;100.00
13314;BME280;6725;48.112;11.604;2023-06-22T00:57:51;95336.06;;;20.49;100.00
13314;BME280;6725;48.112;11.604;2023-06-22T01:00:22;95340.69;;;20.43;100.00
13314;BME280;6725;48.112;11.604;2023-06-22T01:02:50;95331.75;;;20.48;100.00
13314;BME280;6725;48.112;11.604;2023-06-22T01:05:18;95325.59;;;20.44;100.00
13314;BME280;6725;48.112;11.604;2023-06-22T01:11:10;95315.63;;;20.29;100.00
13314;BME280;6725;48.112;11.604;2023-06-22T01:16:17;95312.41;;;20.21;100.00
13314;BME280;6725;48.112;11.604;2023-06-22T01:18:45;95305.19;;;20.15;100.00
13314;BME280;6725;48.112;11.604;2023-06-22T01:21:16;95301.38;;;20.12;100.00
13314;BME280;6725;48.112;11.604;2023-06-22T01:24:01;95298.25;;;20.19;100.00
13314;BME280;6725;48.112;11.604;2023-06-22T01:29:33;95289.31;;;20.06;100.00
13314;BME280;6725;48.112;11.604;2023-06-22T01:32:02;95299.66;;;19.97;100.00
13314;BME280;6725;48.112;11.604;2023-06-22T01:34:30;95288.44;;;19.91;100.00
13314;BME280;6725;48.112;11.604;2023-06-22T01:36:56;95276.75;;;19.87;100.00
13314;BME280;6725;48.112;11.604;2023-06-22T01:39:23;95278.47;;;19.85;100.00
13314;BME280;6725;48.112;11.604;2023-06-22T01:41:48;95276.16;;;19.83;100.00
13314;BME280;6725;48.112;11.604;2023-06-22T01:44:15;95268.91;;;19.86;100.00
13314;BME280;6725;48.112;11.604;2023-06-22T01:46:41;95268.13;;;19.85;100.00
13314;BME280;6725;48.112;11.604;2023-06-22T01:49:07;95257.22;;;19.82;100.00
13314;BME280;6725;48.112;11.604;2023-06-22T01:51:33;95261.38;;;19.77;100.00
13314;BME280;6725;48.112;11.604;2023-06-22T01:53:58;95261.97;;;19.81;100.00
13314;BME280;6725;48.112;11.604;2023-06-22T01:56:26;95262.63;;;19.76;100.00
13314;BME280;6725;48.112;11.604;2023-06-22T02:02:01;95251.84;;;19.69;100.00
13314;BME280;6725;48.112;11.604;2023-06-22T02:04:32;95251.69;;;19.73;100.00
13314;BME280;6725;48.112;11.604;2023-06-22T02:07:00;95261.53;;;19.74;100.00
13314;BME280;6725;48.112;11.604;2023-06-22T02:09:29;95258.31;;;19.75;100.00
13314;BME280;6725;48.112;11.604;2023-06-22T02:11:57;95262.00;;;19.72;100.00
13314;BME280;6725;48.112;11.604;2023-06-22T02:14:24;95265.72;;;19.69;100.00
13314;BME280;6725;48.112;11.604;2023-06-22T02:16:51;95268.94;;;19.68;100.00
13314;BME280;6725;48.112;11.604;2023-06-22T02:19:16;95266.03;;;19.71;100.00
13314;BME280;6725;48.112;11.604;2023-06-22T02:21:44;95257.53;;;19.75;100.00
13314;BME280;6725;48.112;11.604;2023-06-22T02:24:09;95256.44;;;19.81;100.00
13314;BME280;6725;48.112;11.604;2023-06-22T02:26:35;95253.66;;;19.90;100.00
13314;BME280;6725;48.112;11.604;2023-06-22T02:29:03;95250.56;;;19.88;100.00
13314;BME280;6725;48.112;11.604;2023-06-22T02:31:28;95260.28;;;19.84;100.00
13314;BME280;6725;48.112;11.604;2023-06-22T02:33:59;95255.81;;;19.77;100.00
13314;BME280;6725;48.112;11.604;2023-06-22T02:36:25;95257.84;;;19.77;100.00
13314;BME280;6725;48.112;11.604;2023-06-22T02:38:52;95266.94;;;19.68;100.00
13314;BME280;6725;48.112;11.604;2023-06-22T02:41:19;95272.78;;;19.70;100.00
13314;BME280;6725;48.112;11.604;2023-06-22T02:43:45;95278.19;;;19.74;100.00
13314;BME280;6725;48.112;11.604;2023-06-22T02:46:11;95283.72;;;19.74;100.00
13314;BME280;6725;48.112;11.604;2023-06-22T02:48:38;95282.34;;;19.69;100.00
13314;BME280;6725;48.112;11.604;2023-06-22T02:51:03;95284.81;;;19.67;100.00
13314;BME280;6725;48.112;11.604;2023-06-22T02:53:29;95289.88;;;19.69;100.00
13314;BME280;6725;48.112;11.604;2023-06-22T02:55:55;95288.50;;;19.64;100.00
13314;BME280;6725;48.112;11.604;2023-06-22T02:58:21;95287.91;;;19.60;100.00
13314;BME280;6725;48.112;11.604;2023-06-22T03:00:46;95277.88;;;19.63;100.00
13314;BME280;6725;48.112;11.604;2023-06-22T03:03:12;95279.41;;;19.64;100.00
13314;BME280;6725;48.112;11.604;2023-06-22T03:05:37;95282.38;;;19.60;100.00
13314;BME280;6725;48.112;11.604;2023-06-22T03:08:02;95270.19;;;19.58;100.00
13314;BME280;6725;48.112;11.604;2023-06-22T03:10:28;95270.34;;;19.54;100.00
13314;BME280;6725;48.112;11.604;2023-06-22T03:12:54;95268.22;;;19.49;100.00
13314;BME280;6725;48.112;11.604;2023-06-22T03:15:19;95264.84;;;19.45;100.00
13314;BME280;6725;48.112;11.604;2023-06-22T03:17:45;95266.03;;;19.44;100.00
13314;BME280;6725;48.112;11.604;2023-06-22T03:20:10;95266.66;;;19.48;100.00
13314;BME280;6725;48.112;11.604;2023-06-22T03:22:39;95267.91;;;19.47;100.00
13314;BME280;6725;48.112;11.604;2023-06-22T03:25:07;95263.75;;;19.42;100.00
13314;BME280;6725;48.112;11.604;2023-06-22T03:27:39;95261.75;;;19.43;100.00
13314;BME280;6725;48.112;11.604;2023-06-22T03:30:08;95254.53;;;19.36;100.00
13314;BME280;6725;48.112;11.604;2023-06-22T03:32:34;95249.13;;;19.42;100.00
13314;BME280;6725;48.112;11.604;2023-06-22T03:35:00;95254.81;;;19.48;100.00
13314;BME280;6725;48.112;11.604;2023-06-22T03:37:26;95262.50;;;19.52;100.00
13314;BME280;6725;48.112;11.604;2023-06-22T03:39:51;95253.09;;;19.59;100.00
13314;BME280;6725;48.112;11.604;2023-06-22T03:42:17;95246.94;;;19.64;100.00
13314;BME280;6725;48.112;11.604;2023-06-22T03:44:42;95218.00;;;19.65;100.00
13314;BME280;6725;48.112;11.604;2023-06-22T03:47:08;95232.44;;;19.69;100.00
13314;BME280;6725;48.112;11.604;2023-06-22T03:49:34;95223.47;;;19.83;100.00
13314;BME280;6725;48.112;11.604;2023-06-22T03:52:00;95227.78;;;19.84;100.00
13314;BME280;6725;48.112;11.604;2023-06-22T03:54:27;95234.38;;;19.96;100.00
13314;BME280;6725;48.112;11.604;2023-06-22T03:56:53;95240.53;;;20.00;100.00
13314;BME280;6725;48.112;11.604;2023-06-22T03:59:18;95251.13;;;20.10;100.00
13314;BME280;6725;48.112;11.604;2023-06-22T04:01:43;95252.00;;;20.25;100.00
13314;BME280;6725;48.112;11.604;2023-06-22T04:04:09;95259.94;;;20.41;100.00
13314;BME280;6725;48.112;11.604;2023-06-22T04:06:35;95270.09;;;20.44;100.00
13314;BME280;6725;48.112;11.604;2023-06-22T04:09:00;95276.09;;;20.75;100.00
13314;BME280;6725;48.112;11.604;2023-06-22T04:11:26;95302.38;;;20.98;100.00
13314;BME280;6725;48.112;11.604;2023-06-22T04:13:51;95301.47;;;21.15;100.00
13314;BME280;6725;48.112;11.604;2023-06-22T04:16:17;95310.38;;;21.19;100.00
13314;BME280;6725;48.112;11.604;2023-06-22T04:18:42;95307.00;;;21.39;100.00
13314;BME280;6725;48.112;11.604;2023-06-22T04:21:08;95308.16;;;21.32;100.00
13314;BME280;6725;48.112;11.604;2023-06-22T04:23:33;95297.25;;;21.43;100.00
13314;BME280;6725;48.112;11.604;2023-06-22T04:25:59;95306.38;;;21.58;100.00
13314;BME280;6725;48.112;11.604;2023-06-22T04:28:25;95317.94;;;21.95;100.00
13314;BME280;6725;48.112;11.604;2023-06-22T04:30:50;95309.50;;;21.89;100.00
13314;BME280;6725;48.112;11.604;2023-06-22T04:33:16;95325.56;;;22.23;100.00
13314;BME280;6725;48.112;11.604;2023-06-22T04:35:44;95326.22;;;22.62;100.00
13314;BME280;6725;48.112;11.604;2023-06-22T04:38:12;95316.88;;;23.00;100.00
13314;BME280;6725;48.112;11.604;2023-06-22T04:40:39;95334.00;;;22.93;100.00
13314;BME280;6725;48.112;11.604;2023-06-22T04:43:04;95334.47;;;23.26;100.00
13314;BME280;6725;48.112;11.604;2023-06-22T04:45:31;95339.69;;;23.18;100.00
13314;BME280;6725;48.112;11.604;2023-06-22T04:47:56;95336.66;;;23.02;100.00
13314;BME280;6725;48.112;11.604;2023-06-22T04:50:22;95334.63;;;23.37;100.00
13314;BME280;6725;48.112;11.604;2023-06-22T04:52:49;95344.31;;;23.07;100.00
13314;BME280;6725;48.112;11.604;2023-06-22T04:55:14;95329.41;;;22.90;100.00
13314;BME280;6725;48.112;11.604;2023-06-22T04:57:45;95326.38;;;23.08;100.00
13314;BME280;6725;48.112;11.604;2023-06-22T05:00:14;95331.44;;;23.24;100.00
13314;BME280;6725;48.112;11.604;2023-06-22T05:02:43;95325.13;;;23.09;100.00
13314;BME280;6725;48.112;11.604;2023-06-22T05:05:09;95326.44;;;23.13;100.00
13314;BME280;6725;48.112;11.604;2023-06-22T05:07:42;95324.56;;;23.05;100.00
13314;BME280;6725;48.112;11.604;2023-06-22T05:10:09;95316.38;;;23.56;100.00
13314;BME280;6725;48.112;11.604;2023-06-22T05:12:36;95326.16;;;23.71;100.00
13314;BME280;6725;48.112;11.604;2023-06-22T05:15:02;95329.06;;;23.57;100.00
13314;BME280;6725;48.112;11.604;2023-06-22T05:17:27;95317.84;;;23.77;100.00
13314;BME280;6725;48.112;11.604;2023-06-22T05:19:53;95317.47;;;23.44;100.00
13314;BME280;6725;48.112;11.604;2023-06-22T05:22:19;95318.16;;;23.59;100.00
13314;BME280;6725;48.112;11.604;2023-06-22T05:24:45;95313.63;;;24.32;100.00
13314;BME280;6725;48.112;11.604;2023-06-22T05:27:11;95319.09;;;24.78;100.00
13314;BME280;6725;48.112;11.604;2023-06-22T05:29:37;95332.59;;;24.85;100.00
13314;BME280;6725;48.112;11.604;2023-06-22T05:32:03;95333.50;;;25.02;100.00
13314;BME280;6725;48.112;11.604;2023-06-22T05:34:28;95325.31;;;24.98;100.00
13314;BME280;6725;48.112;11.604;2023-06-22T05:36:53;95323.56;;;25.43;100.00
13314;BME280;6725;48.112;11.604;2023-06-22T05:39:19;95333.94;;;25.31;100.00
13314;BME280;6725;48.112;11.604;2023-06-22T05:41:45;95319.19;;;25.95;100.00
13314;BME280;6725;48.112;11.604;2023-06-22T05:44:10;95323.81;;;25.45;100.00
13314;BME280;6725;48.112;11.604;2023-06-22T05:46:36;95323.81;;;25.45;100.00
13314;BME280;6725;48.112;11.604;2023-06-22T05:49:01;95323.34;;;25.04;100.00
13314;BME280;6725;48.112;11.604;2023-06-22T05:51:27;95319.09;;;25.68;100.00
13314;BME280;6725;48.112;11.604;2023-06-22T05:53:52;95320.56;;;26.49;100.00
13314;BME280;6725;48.112;11.604;2023-06-22T05:56:17;95320.56;;;26.99;100.00
13314;BME280;6725;48.112;11.604;2023-06-22T05:58:43;95327.41;;;26.54;100.00
13314;BME280;6725;48.112;11.604;2023-06-22T06:01:08;95330.50;;;26.78;100.00
13314;BME280;6725;48.112;11.604;2023-06-22T06:03:33;95343.97;;;26.46;100.00
13314;BME280;6725;48.112;11.604;2023-06-22T06:05:59;95340.22;;;26.66;100.00
13314;BME280;6725;48.112;11.604;2023-06-22T06:08:25;95342.19;;;27.09;100.00
13314;BME280;6725;48.112;11.604;2023-06-22T06:10:50;95338.41;;;26.90;100.00
13314;BME280;6725;48.112;11.604;2023-06-22T06:13:18;95331.78;;;26.71;100.00
13314;BME280;6725;48.112;11.604;2023-06-22T06:15:43;95329.91;;;27.40;100.00
13314;BME280;6725;48.112;11.604;2023-06-22T06:18:09;95329.03;;;28.24;100.00
13314;BME280;6725;48.112;11.604;2023-06-22T06:20:34;95321.22;;;28.52;100.00
13314;BME280;6725;48.112;11.604;2023-06-22T06:22:59;95310.41;;;28.62;100.00
13314;BME280;6725;48.112;11.604;2023-06-22T06:25:25;95312.94;;;28.95;100.00
13314;BME280;6725;48.112;11.604;2023-06-22T06:27:51;95320.28;;;27.92;100.00
13314;BME280;6725;48.112;11.604;2023-06-22T06:30:19;95300.72;;;29.16;100.00
13314;BME280;6725;48.112;11.604;2023-06-22T06:32:45;95318.13;;;28.09;100.00
13314;BME280;6725;48.112;11.604;2023-06-22T06:35:13;95317.50;;;27.81;100.00
13314;BME280;6725;48.112;11.604;2023-06-22T06:37:41;95307.56;;;29.69;100.00
13314;BME280;6725;48.112;11.604;2023-06-22T06:40:07;95303.69;;;30.46;100.00
13314;BME280;6725;48.112;11.604;2023-06-22T06:42:40;95302.41;;;30.10;100.00
13314;BME280;6725;48.112;11.604;2023-06-22T06:45:20;95309.41;;;30.59;100.00
13314;BME280;6725;48.112;11.604;2023-06-22T06:47:48;95306.44;;;30.51;100.00
13314;BME280;6725;48.112;11.604;2023-06-22T06:50:13;95306.69;;;30.35;100.00
13314;BME280;6725;48.112;11.604;2023-06-22T06:52:39;95302.91;;;30.64;100.00
13314;BME280;6725;48.112;11.604;2023-06-22T06:55:05;95308.34;;;30.43;100.00
13314;BME280;6725;48.112;11.604;2023-06-22T06:57:34;95308.47;;;31.14;100.00
13314;BME280;6725;48.112;11.604;2023-06-22T06:59:59;95296.97;;;31.12;100.00
13314;BME280;6725;48.112;11.604;2023-06-22T07:02:25;95303.72;;;32.00;100.00
13314;BME280;6725;48.112;11.604;2023-06-22T07:04:53;95296.88;;;31.70;100.00
13314;BME280;6725;48.112;11.604;2023-06-22T07:07:20;95308.72;;;32.07;100.00
13314;BME280;6725;48.112;11.604;2023-06-22T07:09:45;95304.38;;;31.93;100.00
13314;BME280;6725;48.112;11.604;2023-06-22T07:12:11;95311.66;;;31.76;100.00
13314;BME280;6725;48.112;11.604;2023-06-22T07:14:36;95305.69;;;32.05;100.00
13314;BME280;6725;48.112;11.604;2023-06-22T07:17:01;95311.72;;;32.22;100.00
13314;BME280;6725;48.112;11.604;2023-06-22T07:19:27;95304.88;;;33.05;100.00
13314;BME280;6725;48.112;11.604;2023-06-22T07:21:53;95298.53;;;32.71;100.00
13314;BME280;6725;48.112;11.604;2023-06-22T07:24:22;95300.06;;;33.98;91.71
13314;BME280;6725;48.112;11.604;2023-06-22T07:26:48;95301.38;;;33.40;92.73
13314;BME280;6725;48.112;11.604;2023-06-22T07:29:18;95302.50;;;33.94;92.06
13314;BME280;6725;48.112;11.604;2023-06-22T07:31:44;95291.22;;;33.45;92.33
13314;BME280;6725;48.112;11.604;2023-06-22T07:34:10;95296.72;;;34.80;86.42
13314;BME280;6725;48.112;11.604;2023-06-22T07:36:35;95293.69;;;34.63;89.30
13314;BME280;6725;48.112;11.604;2023-06-22T07:39:04;95285.81;;;35.29;82.73
13314;BME280;6725;48.112;11.604;2023-06-22T07:41:30;95273.66;;;35.51;77.78
13314;BME280;6725;48.112;11.604;2023-06-22T07:43:56;95273.78;;;34.55;83.36
13314;BME280;6725;48.112;11.604;2023-06-22T07:46:21;95268.78;;;34.84;81.20
13314;BME280;6725;48.112;11.604;2023-06-22T07:48:47;95277.84;;;35.20;80.16
13314;BME280;6725;48.112;11.604;2023-06-22T07:51:12;95268.00;;;35.06;79.81
13314;BME280;6725;48.112;11.604;2023-06-22T07:53:42;95271.78;;;35.16;81.12
13314;BME280;6725;48.112;11.604;2023-06-22T07:56:10;95270.84;;;35.21;83.19
13314;BME280;6725;48.112;11.604;2023-06-22T07:58:36;95268.38;;;35.32;79.42
13314;BME280;6725;48.112;11.604;2023-06-22T08:01:02;95272.16;;;35.05;84.36
13314;BME280;6725;48.112;11.604;2023-06-22T08:03:28;95277.78;;;34.60;89.15
13314;BME280;6725;48.112;11.604;2023-06-22T08:05:53;95274.00;;;34.65;84.99
13314;BME280;6725;48.112;11.604;2023-06-22T08:08:18;95278.03;;;35.14;83.84
13314;BME280;6725;48.112;11.604;2023-06-22T08:10:43;95275.22;;;35.37;79.62
13314;BME280;6725;48.112;11.604;2023-06-22T08:13:10;95276.66;;;33.76;92.56
13314;BME280;6725;48.112;11.604;2023-06-22T08:15:35;95271.03;;;35.23;81.51
13314;BME280;6725;48.112;11.604;2023-06-22T08:18:00;95283.34;;;36.17;74.63
13314;BME280;6725;48.112;11.604;2023-06-22T08:20:26;95270.66;;;35.19;79.73
13314;BME280;6725;48.112;11.604;2023-06-22T08:22:53;95264.97;;;36.83;72.42
13314;BME280;6725;48.112;11.604;2023-06-22T08:25:18;95264.06;;;38.05;66.68
13314;BME280;6725;48.112;11.604;2023-06-22T08:27:47;95264.88;;;37.64;66.79
13314;BME280;6725;48.112;11.604;2023-06-22T08:30:16;95265.63;;;36.66;66.32
13314;BME280;6725;48.112;11.604;2023-06-22T08:32:43;95265.84;;;35.74;73.60
13314;BME280;6725;48.112;11.604;2023-06-22T08:35:09;95257.97;;;34.82;78.30
13314;BME280;6725;48.112;11.604;2023-06-22T08:37:34;95254.72;;;34.71;83.31
13314;BME280;6725;48.112;11.604;2023-06-22T08:40:02;95254.31;;;34.52;81.77
13314;BME280;6725;48.112;11.604;2023-06-22T08:42:33;95260.38;;;33.13;90.34
13314;BME280;6725;48.112;11.604;2023-06-22T08:44:58;95258.19;;;33.19;91.44
13314;BME280;6725;48.112;11.604;2023-06-22T08:47:24;95257.03;;;32.74;99.37
13314;BME280;6725;48.112;11.604;2023-06-22T08:49:49;95248.69;;;33.37;92.58
13314;BME280;6725;48.112;11.604;2023-06-22T08:52:15;95247.66;;;33.27;91.39
13314;BME280;6725;48.112;11.604;2023-06-22T08:54:40;95252.69;;;34.21;83.18
13314;BME280;6725;48.112;11.604;2023-06-22T08:57:06;95253.13;;;34.40;82.56
13314;BME280;6725;48.112;11.604;2023-06-22T08:59:32;95246.47;;;34.30;81.75
13314;BME280;6725;48.112;11.604;2023-06-22T09:01:57;95243.59;;;34.88;77.96
13314;BME280;6725;48.112;11.604;2023-06-22T09:04:23;95246.78;;;35.37;77.88
13314;BME280;6725;48.112;11.604;2023-06-22T09:06:49;95250.13;;;34.45;81.84
13314;BME280;6725;48.112;11.604;2023-06-22T09:09:16;95235.00;;;36.10;72.45
13314;BME280;6725;48.112;11.604;2023-06-22T09:11:41;95234.03;;;34.40;82.08
13314;BME280;6725;48.112;11.604;2023-06-22T09:14:08;95249.00;;;34.41;83.30
13314;BME280;6725;48.112;11.604;2023-06-22T09:16:33;95241.88;;;35.00;81.17
13314;BME280;6725;48.112;11.604;2023-06-22T09:18:59;95244.84;;;35.54;74.32
13314;BME280;6725;48.112;11.604;2023-06-22T09:21:24;95240.53;;;35.31;78.86
13314;BME280;6725;48.112;11.604;2023-06-22T09:23:49;95242.63;;;35.08;77.94
13314;BME280;6725;48.112;11.604;2023-06-22T09:26:20;95243.94;;;34.99;76.53
13314;BME280;6725;48.112;11.604;2023-06-22T09:28:46;95243.03;;;36.43;71.55
13314;BME280;6725;48.112;11.604;2023-06-22T09:31:12;95245.63;;;35.55;72.24
13314;BME280;6725;48.112;11.604;2023-06-22T09:33:39;95231.66;;;36.36;68.76
13314;BME280;6725;48.112;11.604;2023-06-22T09:36:05;95232.91;;;36.82;69.23
13314;BME280;6725;48.112;11.604;2023-06-22T09:38:37;95236.22;;;36.96;67.39
13314;BME280;6725;48.112;11.604;2023-06-22T09:41:03;95233.47;;;37.05;64.88
13314;BME280;6725;48.112;11.604;2023-06-22T09:43:31;95231.72;;;36.85;65.56
13314;BME280;6725;48.112;11.604;2023-06-22T09:45:56;95234.72;;;36.38;69.78
13314;BME280;6725;48.112;11.604;2023-06-22T09:48:22;95232.53;;;36.14;70.34
13314;BME280;6725;48.112;11.604;2023-06-22T09:50:47;95222.06;;;35.69;70.86
13314;BME280;6725;48.112;11.604;2023-06-22T09:53:12;95224.53;;;36.84;66.80
13314;BME280;6725;48.112;11.604;2023-06-22T09:55:38;95215.34;;;36.93;64.58
13314;BME280;6725;48.112;11.604;2023-06-22T09:58:03;95222.13;;;36.98;66.09
13314;BME280;6725;48.112;11.604;2023-06-22T10:00:28;95215.94;;;37.09;65.94
13314;BME280;6725;48.112;11.604;2023-06-22T10:02:54;95208.53;;;36.64;68.60
13314;BME280;6725;48.112;11.604;2023-06-22T10:05:21;95217.31;;;36.19;70.25
13314;BME280;6725;48.112;11.604;2023-06-22T10:07:47;95198.84;;;37.50;64.30
13314;BME280;6725;48.112;11.604;2023-06-22T10:10:13;95205.19;;;37.24;65.04
13314;BME280;6725;48.112;11.604;2023-06-22T10:12:44;95197.75;;;38.67;60.52
13314;BME280;6725;48.112;11.604;2023-06-22T10:15:10;95203.59;;;38.42;58.83
13314;BME280;6725;48.112;11.604;2023-06-22T10:17:35;95202.19;;;37.39;61.57
13314;BME280;6725;48.112;11.604;2023-06-22T10:20:01;95197.66;;;37.87;61.76
13314;BME280;6725;48.112;11.604;2023-06-22T10:22:36;95193.00;;;37.65;62.45
13314;BME280;6725;48.112;11.604;2023-06-22T10:25:02;95192.78;;;38.41;60.55
13314;BME280;6725;48.112;11.604;2023-06-22T10:27:27;95200.59;;;37.97;60.12
13314;BME280;6725;48.112;11.604;2023-06-22T10:29:53;95194.44;;;36.66;65.15
13314;BME280;6725;48.112;11.604;2023-06-22T10:32:19;95202.66;;;37.11;65.21
13314;BME280;6725;48.112;11.604;2023-06-22T10:34:44;95196.03;;;36.84;65.90
13314;BME280;6725;48.112;11.604;2023-06-22T10:37:09;95183.25;;;37.34;65.82
13314;BME280;6725;48.112;11.604;2023-06-22T10:39:35;95180.19;;;37.15;66.45
13314;BME280;6725;48.112;11.604;2023-06-22T10:42:00;95176.09;;;36.59;68.61
13314;BME280;6725;48.112;11.604;2023-06-22T10:44:25;95171.00;;;37.41;63.02
13314;BME280;6725;48.112;11.604;2023-06-22T10:46:51;95173.78;;;37.83;61.59
13314;BME280;6725;48.112;11.604;2023-06-22T10:49:16;95165.41;;;37.68;61.11
13314;BME280;6725;48.112;11.604;2023-06-22T10:51:41;95172.50;;;37.59;61.57
13314;BME280;6725;48.112;11.604;2023-06-22T10:54:07;95157.75;;;39.12;56.54
13314;BME280;6725;48.112;11.604;2023-06-22T10:56:32;95171.00;;;37.92;57.52
13314;BME280;6725;48.112;11.604;2023-06-22T10:58:58;95170.50;;;37.69;60.00
13314;BME280;6725;48.112;11.604;2023-06-22T11:01:24;95151.88;;;37.34;61.61
13314;BME280;6725;48.112;11.604;2023-06-22T11:03:49;95163.00;;;38.61;57.44
13314;BME280;6725;48.112;11.604;2023-06-22T11:06:14;95163.81;;;36.99;63.62
13314;BME280;6725;48.112;11.604;2023-06-22T11:08:40;95153.56;;;37.71;61.21
13314;BME280;6725;48.112;11.604;2023-06-22T11:11:08;95156.09;;;37.67;60.95
13314;BME280;6725;48.112;11.604;2023-06-22T11:13:33;95166.03;;;36.34;64.30
13314;BME280;6725;48.112;11.604;2023-06-22T11:15:59;95154.56;;;35.70;67.88
13314;BME280;6725;48.112;11.604;2023-06-22T11:18:24;95145.31;;;36.09;67.82
13314;BME280;6725;48.112;11.604;2023-06-22T11:20:50;95152.84;;;36.46;66.97
13314;BME280;6725;48.112;11.604;2023-06-22T11:23:15;95153.78;;;36.48;67.36
13314;BME280;6725;48.112;11.604;2023-06-22T11:25:40;95159.50;;;35.77;69.97
13314;BME280;6725;48.112;11.604;2023-06-22T11:28:07;95156.66;;;35.77;70.50
13314;BME280;6725;48.112;11.604;2023-06-22T11:30:33;95151.53;;;35.83;71.16
13314;BME280;6725;48.112;11.604;2023-06-22T11:32:59;95151.13;;;36.50;68.63
13314;BME280;6725;48.112;11.604;2023-06-22T11:35:25;95146.47;;;37.04;66.18
13314;BME280;6725;48.112;11.604;2023-06-22T11:37:50;95136.16;;;37.09;66.28
13314;BME280;6725;48.112;11.604;2023-06-22T11:40:16;95142.53;;;35.94;70.14
13314;BME280;6725;48.112;11.604;2023-06-22T11:42:42;95132.88;;;36.78;68.15
13314;BME280;6725;48.112;11.604;2023-06-22T11:45:08;95125.19;;;37.05;66.79
13314;BME280;6725;48.112;11.604;2023-06-22T11:47:34;95122.91;;;37.04;67.05
13314;BME280;6725;48.112;11.604;2023-06-22T11:49:59;95117.59;;;36.09;72.51
13314;BME280;6725;48.112;11.604;2023-06-22T11:52:24;95116.53;;;36.54;68.11
13314;BME280;6725;48.112;11.604;2023-06-22T11:54:50;95122.28;;;36.71;68.25
13314;BME280;6725;48.112;11.604;2023-06-22T11:57:15;95118.63;;;36.29;72.39
13314;BME280;6725;48.112;11.604;2023-06-22T11:59:40;95113.75;;;35.90;71.86
13314;BME280;6725;48.112;11.604;2023-06-22T12:02:06;95110.50;;;36.18;74.14
13314;BME280;6725;48.112;11.604;2023-06-22T12:04:32;95111.31;;;36.43;72.40
13314;BME280;6725;48.112;11.604;2023-06-22T12:06:58;95110.97;;;36.39;71.64
13314;BME280;6725;48.112;11.604;2023-06-22T12:09:23;95111.13;;;36.41;73.08
13314;BME280;6725;48.112;11.604;2023-06-22T12:11:49;95106.88;;;36.25;74.49
13314;BME280;6725;48.112;11.604;2023-06-22T12:14:14;95102.03;;;36.10;73.55
13314;BME280;6725;48.112;11.604;2023-06-22T12:16:39;95095.78;;;35.80;74.33
13314;BME280;6725;48.112;11.604;2023-06-22T12:19:05;95095.22;;;35.27;80.48
13314;BME280;6725;48.112;11.604;2023-06-22T12:21:30;95079.69;;;35.28;80.46
13314;BME280;6725;48.112;11.604;2023-06-22T12:23:56;95084.84;;;36.01;77.94
13314;BME280;6725;48.112;11.604;2023-06-22T12:26:21;95077.28;;;36.20;75.31
13314;BME280;6725;48.112;11.604;2023-06-22T12:28:47;95073.19;;;35.42;78.95
13314;BME280;6725;48.112;11.604;2023-06-22T12:31:14;95061.22;;;35.91;76.78
13314;BME280;6725;48.112;11.604;2023-06-22T12:33:39;95069.91;;;35.93;75.34
13314;BME280;6725;48.112;11.604;2023-06-22T12:36:04;95067.34;;;35.80;77.40
13314;BME280;6725;48.112;11.604;2023-06-22T12:38:30;95066.03;;;35.34;79.33
13314;BME280;6725;48.112;11.604;2023-06-22T12:40:55;95065.25;;;35.41;79.67
13314;BME280;6725;48.112;11.604;2023-06-22T12:43:21;95047.75;;;35.52;77.83
13314;BME280;6725;48.112;11.604;2023-06-22T12:45:46;95048.88;;;35.56;79.55
13314;BME280;6725;48.112;11.604;2023-06-22T12:48:11;95051.53;;;35.54;77.46
13314;BME280;6725;48.112;11.604;2023-06-22T12:50:38;95053.56;;;35.22;78.47
13314;BME280;6725;48.112;11.604;2023-06-22T12:53:03;95046.69;;;35.79;75.91
13314;BME280;6725;48.112;11.604;2023-06-22T12:55:29;95057.38;;;35.96;71.71
13314;BME280;6725;48.112;11.604;2023-06-22T12:57:55;95047.59;;;35.82;73.82
13314;BME280;6725;48.112;11.604;2023-06-22T13:00:20;95045.47;;;36.14;73.95
13314;BME280;6725;48.112;11.604;2023-06-22T13:02:46;95064.16;;;36.32;72.48